createdAt,value
2022-08-31T00:05:43.400Z,28.69
2022-08-31T00:12:31.532Z,28.83
2022-08-31T00:19:17.364Z,28.90
2022-08-31T00:26:03.420Z,28.75
2022-08-31T00:32:51.561Z,29.10
2022-08-31T00:39:37.712Z,29.19
2022-08-31T00:46:27.827Z,29.38
2022-08-31T00:53:16.026Z,29.20
2022-08-31T01:00:04.527Z,29.62
2022-08-31T01:06:51.850Z,29.37
2022-08-31T01:13:40.297Z,29.84
2022-08-31T01:20:32.745Z,29.75
2022-08-31T01:27:25.796Z,30.00
2022-08-31T01:34:12.460Z,29.70
2022-08-31T01:41:02.648Z,29.89
2022-08-31T01:47:51.121Z,30.07
2022-08-31T01:54:36.696Z,29.60
2022-08-31T02:01:34.641Z,30.27
2022-08-31T02:08:23.465Z,30.59
2022-08-31T02:15:11.505Z,30.37
2022-08-31T02:21:57.532Z,30.37
2022-08-31T02:28:45.544Z,30.44
2022-08-31T02:35:31.029Z,30.67
2022-08-31T02:42:16.255Z,30.40
2022-08-31T03:02:55.422Z,31.78
2022-08-31T03:09:41.858Z,31.88
2022-08-31T03:16:29.414Z,31.99
2022-08-31T03:23:18.111Z,31.72
2022-08-31T03:30:06.108Z,32.04
2022-08-31T03:36:53.162Z,32.60
2022-08-31T03:43:41.888Z,32.74
2022-08-31T03:50:29.584Z,32.78
2022-08-31T03:57:20.160Z,32.75
2022-08-31T04:04:09.494Z,33.01
2022-08-31T04:11:16.172Z,32.96
2022-08-31T04:18:20.760Z,32.79
2022-08-31T04:25:12.504Z,32.98
2022-08-31T04:32:03.931Z,33.48
2022-08-31T04:38:53.014Z,33.12
2022-08-31T04:45:46.163Z,33.32
2022-08-31T04:52:32.594Z,33.87
2022-08-31T04:59:26.132Z,33.48
2022-08-31T05:06:40.307Z,33.99
2022-08-31T05:13:26.309Z,34.17
2022-08-31T05:20:13.110Z,34.38
2022-08-31T05:27:01.909Z,34.41
2022-08-31T05:33:48.871Z,34.51
2022-08-31T05:40:36.255Z,34.85
2022-08-31T05:47:24.409Z,35.32
2022-08-31T05:54:11.213Z,35.16
2022-08-31T06:00:56.666Z,35.18
2022-08-31T06:08:16.596Z,35.43
2022-08-31T06:15:05.515Z,35.83
2022-08-31T06:21:51.887Z,36.86
2022-08-31T06:28:46.411Z,38.42
2022-08-31T06:35:32.646Z,39.74
2022-08-31T06:42:36.674Z,40.73
2022-08-31T06:49:25.058Z,42.07
2022-08-31T06:56:20.326Z,42.53
2022-08-31T07:03:36.021Z,42.84
2022-08-31T07:10:24.179Z,43.43
2022-08-31T07:17:10.566Z,43.25
2022-08-31T07:23:57.852Z,43.26
2022-08-31T07:30:46.046Z,44.12
2022-08-31T07:37:46.765Z,44.45
2022-08-31T07:44:34.589Z,44.35
2022-08-31T07:51:24.414Z,44.37
2022-08-31T07:58:28.583Z,44.09
2022-08-31T08:05:21.284Z,44.32
2022-08-31T08:12:36.384Z,45.05
2022-08-31T08:19:40.137Z,45.00
2022-08-31T08:26:26.419Z,44.96
2022-08-31T08:33:40.697Z,45.57
2022-08-31T08:40:37.300Z,45.78
2022-08-31T08:47:37.960Z,45.90
2022-08-31T08:54:34.073Z,46.20
2022-08-31T09:01:30.597Z,46.32
2022-08-31T09:08:51.000Z,45.87
2022-08-31T09:16:04.645Z,46.10
2022-08-31T09:22:57.217Z,46.31
2022-08-31T09:29:46.281Z,46.32
2022-08-31T09:36:41.540Z,46.56
2022-08-31T09:43:38.799Z,46.69
2022-08-31T09:50:36.799Z,47.06
2022-08-31T09:57:47.824Z,47.73
2022-08-31T10:04:38.161Z,47.63
2022-08-31T10:11:26.678Z,47.82
2022-08-31T10:18:20.152Z,48.13
2022-08-31T10:25:21.511Z,48.36
2022-08-31T10:32:23.837Z,48.08
2022-08-31T10:39:36.337Z,48.27
2022-08-31T10:46:22.288Z,47.29
2022-08-31T10:53:34.642Z,47.58
2022-08-31T11:00:48.917Z,47.18
2022-08-31T11:07:45.425Z,47.42
2022-08-31T11:15:06.017Z,46.67
2022-08-31T11:22:28.663Z,46.31
2022-08-31T11:29:36.958Z,46.97
2022-08-31T11:36:52.886Z,47.35
2022-08-31T11:43:54.767Z,47.27
2022-08-31T11:51:07.878Z,47.64
2022-08-31T11:58:21.179Z,47.19
2022-08-31T12:05:10.559Z,47.16
2022-08-31T12:12:07.618Z,47.33
2022-08-31T12:19:26.288Z,45.42
2022-08-31T12:26:45.691Z,46.40
2022-08-31T12:33:33.366Z,46.87
2022-08-31T12:40:23.558Z,45.02
2022-08-31T12:47:26.185Z,45.55
2022-08-31T12:54:46.606Z,44.86
2022-08-31T13:01:32.560Z,43.46
2022-08-31T13:08:31.144Z,42.70
2022-08-31T13:15:26.882Z,42.37
2022-08-31T13:22:17.374Z,41.54
2022-08-31T13:29:10.872Z,41.23
2022-08-31T13:36:03.966Z,40.59
2022-08-31T13:42:57.085Z,40.01
2022-08-31T13:49:49.864Z,40.20
2022-08-31T13:56:59.055Z,38.81
2022-08-31T14:03:57.224Z,38.44
2022-08-31T14:10:49.996Z,37.95
2022-08-31T14:17:35.960Z,37.50
2022-08-31T14:24:21.504Z,37.41
2022-08-31T14:31:24.664Z,36.96
2022-08-31T14:38:15.367Z,37.18
2022-08-31T14:45:04.997Z,36.67
2022-08-31T14:51:53.329Z,36.14
2022-08-31T14:58:42.149Z,36.65
2022-08-31T15:05:29.376Z,36.10
2022-08-31T15:12:18.440Z,35.51
2022-08-31T15:19:05.729Z,35.55
2022-08-31T15:25:51.168Z,35.07
2022-08-31T15:32:46.344Z,34.92
2022-08-31T15:39:36.360Z,34.80
2022-08-31T15:46:44.009Z,34.39
2022-08-31T15:53:35.453Z,34.18
2022-08-31T16:00:21.321Z,34.27
2022-08-31T16:07:09.283Z,33.90
2022-08-31T16:14:01.268Z,33.33
2022-08-31T16:20:49.157Z,33.37
2022-08-31T16:27:35.002Z,33.65
2022-08-31T16:34:24.169Z,33.06
2022-08-31T16:41:10.985Z,32.78
2022-08-31T16:48:16.589Z,32.52
2022-08-31T16:55:04.653Z,33.16
2022-08-31T17:01:50.439Z,32.97
2022-08-31T17:08:37.252Z,32.50
2022-08-31T17:15:26.761Z,32.13
2022-08-31T17:22:23.406Z,32.39
2022-08-31T17:29:12.447Z,32.16
2022-08-31T17:36:02.419Z,32.14
2022-08-31T17:42:48.514Z,32.24
2022-08-31T17:49:37.917Z,32.17
2022-08-31T17:56:28.555Z,32.13
2022-08-31T18:03:14.044Z,32.52
2022-08-31T18:10:00.270Z,32.42
2022-08-31T18:16:50.590Z,32.13
2022-08-31T18:23:37.955Z,32.61
2022-08-31T18:30:23.778Z,32.89
2022-08-31T18:37:12.959Z,32.95
2022-08-31T18:44:11.303Z,32.80
2022-08-31T18:50:59.080Z,32.73
2022-08-31T18:57:49.059Z,32.61
2022-08-31T19:04:35.319Z,32.56
2022-08-31T19:11:23.527Z,32.94
2022-08-31T19:18:11.893Z,32.97
2022-08-31T19:24:59.463Z,32.96
2022-08-31T19:31:51.959Z,32.94
2022-08-31T19:38:40.586Z,33.09
2022-08-31T19:45:42.340Z,33.46
2022-08-31T19:52:28.664Z,33.64
2022-08-31T19:59:20.127Z,33.10
2022-08-31T20:06:09.795Z,33.85
2022-08-31T20:12:56.248Z,34.20
2022-08-31T20:19:45.057Z,34.29
2022-08-31T20:26:36.166Z,34.59
2022-08-31T20:33:25.301Z,34.95
2022-08-31T20:40:17.188Z,34.70
2022-08-31T20:47:18.382Z,34.93
2022-08-31T20:54:04.795Z,34.99
2022-08-31T21:00:52.860Z,35.35
2022-08-31T21:07:38.306Z,35.38
2022-08-31T21:14:26.276Z,35.30
2022-08-31T21:21:18.433Z,35.42
2022-08-31T21:28:03.836Z,35.50
2022-08-31T21:34:49.396Z,35.62
2022-08-31T21:41:38.908Z,36.04
2022-08-31T21:48:26.049Z,36.01
2022-08-31T21:55:13.694Z,36.34
2022-08-31T22:02:04.176Z,35.85
2022-08-31T22:08:50.707Z,36.09
2022-08-31T22:15:37.441Z,36.55
2022-08-31T22:22:25.582Z,36.67
2022-08-31T22:29:15.293Z,36.64
2022-08-31T22:36:00.740Z,36.83
2022-08-31T22:42:51.867Z,37.06
2022-08-31T22:49:37.542Z,37.35
2022-08-31T22:56:27.667Z,36.91
2022-08-31T23:03:15.801Z,37.08
2022-08-31T23:10:02.402Z,37.52
2022-08-31T23:16:57.303Z,37.20
2022-08-31T23:23:45.850Z,37.53
2022-08-31T23:30:31.567Z,37.32
2022-08-31T23:37:17.934Z,37.51
2022-08-31T23:44:09.268Z,37.93
2022-08-31T23:50:55.483Z,37.64
2022-08-31T23:57:41.890Z,37.38
